createdAt,value
2022-09-21T00:04:00.181Z,100418.44
2022-09-21T00:09:05.226Z,100417.94
2022-09-21T00:14:13.245Z,100419.03
2022-09-21T00:19:16.953Z,100423.44
2022-09-21T00:24:19.685Z,100422.66
2022-09-21T00:29:22.401Z,100425.66
2022-09-21T00:34:25.128Z,100432.63
2022-09-21T00:39:28.321Z,100430.72
2022-09-21T00:44:33.364Z,100430.63
2022-09-21T00:49:36.828Z,100428.16
2022-09-21T00:54:55.961Z,100426.53
2022-09-21T01:00:02.600Z,100435.03
2022-09-21T01:05:10.074Z,100429.78
2022-09-21T01:10:17.680Z,100436.50
2022-09-21T01:15:39.097Z,100433.31
2022-09-21T01:21:20.560Z,100429.88
2022-09-21T01:26:49.338Z,100441.97
2022-09-21T01:32:15.882Z,100442.69
2022-09-21T01:37:26.078Z,100452.16
2022-09-21T01:42:31.095Z,100451.88
2022-09-21T01:47:37.743Z,100452.56
2022-09-21T01:52:52.638Z,100458.13
2022-09-21T01:58:12.151Z,100458.53
2022-09-21T02:03:36.681Z,100447.13
2022-09-21T02:08:39.608Z,100458.25
2022-09-21T02:13:48.381Z,100456.53
2022-09-21T02:19:29.310Z,100447.59
2022-09-21T02:24:57.343Z,100448.44
2022-09-21T02:30:15.255Z,100453.41
2022-09-21T02:35:39.987Z,100460.19
2022-09-21T02:41:20.799Z,100461.59
2022-09-21T02:46:32.487Z,100467.06
2022-09-21T02:51:59.249Z,100468.72
2022-09-21T02:57:03.108Z,100471.81
2022-09-21T03:02:07.158Z,100468.75
2022-09-21T03:07:10.070Z,100470.31
2022-09-21T03:12:13.036Z,100486.88
2022-09-21T03:17:16.102Z,100492.47
2022-09-21T03:22:21.284Z,100490.50
2022-09-21T03:27:24.415Z,100489.09
2022-09-21T03:32:27.144Z,100491.38
2022-09-21T03:37:31.222Z,100491.06
2022-09-21T03:42:34.478Z,100492.50
2022-09-21T03:47:38.711Z,100492.91
2022-09-21T03:52:41.815Z,100505.84
2022-09-21T03:57:44.502Z,100494.72
2022-09-21T04:02:47.425Z,100497.38
2022-09-21T04:07:50.225Z,100507.53
2022-09-21T04:12:57.950Z,100511.41
2022-09-21T04:18:02.243Z,100509.75
2022-09-21T04:23:04.978Z,100520.06
2022-09-21T04:28:07.847Z,100510.16
2022-09-21T04:33:10.571Z,100515.88
2022-09-21T04:38:13.980Z,100524.22
2022-09-21T04:43:20.761Z,100526.44
2022-09-21T04:48:25.424Z,100533.13
2022-09-21T04:53:29.045Z,100528.41
2022-09-21T04:58:32.580Z,100538.41
2022-09-21T05:03:35.877Z,100544.66
2022-09-21T05:08:57.523Z,100541.44
2022-09-21T05:14:00.235Z,100538.66
2022-09-21T05:19:03.540Z,100525.41
2022-09-21T05:24:07.996Z,100529.19
2022-09-21T05:29:11.211Z,100536.81
2022-09-21T05:34:44.180Z,100549.31
2022-09-21T05:39:47.370Z,100542.16
2022-09-21T05:44:50.683Z,100539.94
2022-09-21T05:50:13.411Z,100551.88
2022-09-21T05:55:52.880Z,100559.56
2022-09-21T06:01:39.456Z,100556.59
2022-09-21T06:06:42.283Z,100555.41
2022-09-21T06:11:45.086Z,100556.63
2022-09-21T06:16:47.962Z,100554.41
2022-09-21T06:21:50.772Z,100559.97
2022-09-21T06:26:53.576Z,100562.69
2022-09-21T06:31:56.239Z,100562.06
2022-09-21T06:36:58.988Z,100566.72
2022-09-21T06:42:01.816Z,100570.41
2022-09-21T06:47:04.857Z,100565.38
2022-09-21T06:52:07.661Z,100557.50
2022-09-21T06:57:10.570Z,100561.25
2022-09-21T07:02:13.389Z,100557.66
2022-09-21T07:07:16.263Z,100568.19
2022-09-21T07:12:19.485Z,100576.53
2022-09-21T07:17:22.272Z,100563.75
2022-09-21T07:22:25.013Z,100565.09
2022-09-21T07:27:31.426Z,100564.75
2022-09-21T07:32:35.006Z,100562.69
2022-09-21T07:37:37.842Z,100566.59
2022-09-21T07:42:40.684Z,100557.66
2022-09-21T07:47:43.522Z,100569.81
2022-09-21T07:52:46.286Z,100568.13
2022-09-21T07:58:09.347Z,100568.25
2022-09-21T08:03:12.551Z,100567.88
2022-09-21T08:08:16.957Z,100557.50
2022-09-21T08:13:19.704Z,100568.59
2022-09-21T08:18:23.350Z,100572.47
2022-09-21T08:23:29.106Z,100581.19
2022-09-21T08:28:33.907Z,100575.81
2022-09-21T08:33:37.284Z,100578.63
2022-09-21T08:38:41.399Z,100569.13
2022-09-21T08:43:50.429Z,100572.59
2022-09-21T08:49:31.638Z,100570.44
2022-09-21T08:55:03.209Z,100569.53
2022-09-21T09:00:15.445Z,100573.31
2022-09-21T09:05:42.520Z,100572.84
2022-09-21T09:11:20.510Z,100578.56
2022-09-21T09:16:35.051Z,100578.75
2022-09-21T09:21:43.394Z,100581.50
2022-09-21T09:26:51.295Z,100573.38
2022-09-21T09:31:59.310Z,100574.78
2022-09-21T09:37:16.771Z,100563.22
2022-09-21T09:42:46.794Z,100567.22
2022-09-21T09:48:27.077Z,100564.25
2022-09-21T09:53:30.758Z,100552.66
2022-09-21T09:58:52.492Z,100559.75
2022-09-21T10:04:17.564Z,100552.63
2022-09-21T10:09:23.334Z,100549.41
2022-09-21T10:14:31.743Z,100548.09
2022-09-21T10:19:34.730Z,100545.25
2022-09-21T10:24:40.840Z,100527.19
2022-09-21T10:29:47.084Z,100544.78
2022-09-21T10:35:05.216Z,100526.22
2022-09-21T10:40:20.412Z,100540.06
2022-09-21T10:45:30.397Z,100540.22
2022-09-21T10:50:40.069Z,100531.41
2022-09-21T10:56:14.960Z,100527.97
2022-09-21T11:01:25.774Z,100526.91
2022-09-21T11:06:42.460Z,100526.88
2022-09-21T11:12:17.955Z,100509.31
2022-09-21T11:17:48.359Z,100510.13
2022-09-21T11:23:28.285Z,100505.84
2022-09-21T11:28:56.917Z,100492.44
2022-09-21T11:34:28.042Z,100480.38
2022-09-21T11:39:54.067Z,100483.28
2022-09-21T11:45:36.152Z,100469.97
2022-09-21T11:51:28.176Z,100474.06
2022-09-21T11:56:42.617Z,100461.34
2022-09-21T12:02:11.888Z,100459.09
2022-09-21T12:07:45.588Z,100450.41
2022-09-21T12:13:02.570Z,100448.38
2022-09-21T12:18:43.917Z,100455.78
2022-09-21T12:23:57.350Z,100458.97
2022-09-21T12:29:18.723Z,100459.25
2022-09-21T12:34:27.591Z,100463.66
2022-09-21T12:40:10.896Z,100471.28
2022-09-21T12:45:37.320Z,100465.25
2022-09-21T12:50:48.513Z,100457.81
2022-09-21T12:56:12.172Z,100463.22
2022-09-21T13:02:13.082Z,100449.97
2022-09-21T13:08:04.583Z,100447.25
2022-09-21T13:13:28.065Z,100437.94
2022-09-21T13:18:41.628Z,100428.09
2022-09-21T13:23:55.832Z,100428.91
2022-09-21T13:28:58.560Z,100433.84
2022-09-21T13:34:30.197Z,100435.66
2022-09-21T13:39:33.163Z,100433.31
2022-09-21T13:44:44.106Z,100434.50
2022-09-21T13:49:54.055Z,100430.72
2022-09-21T13:55:15.826Z,100430.56
2022-09-21T14:00:20.026Z,100424.19
2022-09-21T14:05:48.635Z,100429.19
2022-09-21T14:11:23.944Z,100412.53
2022-09-21T14:16:29.425Z,100423.47
2022-09-21T14:21:32.386Z,100422.06
2022-09-21T14:26:50.737Z,100408.66
2022-09-21T14:31:59.735Z,100406.59
2022-09-21T14:37:13.961Z,100415.69
2022-09-21T14:42:27.922Z,100414.44
2022-09-21T14:47:57.742Z,100417.28
2022-09-21T14:53:15.525Z,100416.38
2022-09-21T14:59:07.667Z,100422.34
2022-09-21T15:04:54.301Z,100426.97
2022-09-21T15:10:50.820Z,100427.06
2022-09-21T15:16:40.462Z,100431.78
2022-09-21T15:21:47.765Z,100420.84
2022-09-21T15:26:53.031Z,100428.09
2022-09-21T15:31:56.292Z,100425.97
2022-09-21T15:37:17.411Z,100435.94
2022-09-21T15:42:23.241Z,100446.88
2022-09-21T15:47:27.599Z,100436.97
2022-09-21T15:52:43.213Z,100450.97
2022-09-21T15:57:47.364Z,100455.16
2022-09-21T16:03:05.025Z,100463.03
2022-09-21T16:08:26.295Z,100465.84
2022-09-21T16:13:51.684Z,100472.59
2022-09-21T16:18:59.592Z,100471.34
2022-09-21T16:24:18.875Z,100491.34
2022-09-21T16:29:29.516Z,100488.25
2022-09-21T16:34:35.228Z,100502.63
2022-09-21T16:39:38.043Z,100498.91
2022-09-21T16:44:44.948Z,100513.47
2022-09-21T16:49:51.285Z,100516.03
2022-09-21T16:54:56.644Z,100519.84
2022-09-21T16:59:59.574Z,100513.03
2022-09-21T17:05:02.922Z,100510.81
2022-09-21T17:10:14.913Z,100521.28
2022-09-21T17:15:17.897Z,100523.66
2022-09-21T17:20:45.329Z,100521.91
2022-09-21T17:25:48.082Z,100532.81
2022-09-21T17:30:51.647Z,100532.06
2022-09-21T17:35:56.504Z,100546.09
2022-09-21T17:41:00.725Z,100552.66
2022-09-21T17:46:23.555Z,100565.34
2022-09-21T17:51:46.894Z,100565.69
2022-09-21T17:57:14.627Z,100566.72
2022-09-21T18:02:25.986Z,100570.22
2022-09-21T18:07:29.466Z,100572.25
2022-09-21T18:12:54.783Z,100578.06
2022-09-21T18:18:18.576Z,100582.38
2022-09-21T18:23:52.061Z,100586.72
2022-09-21T18:28:58.734Z,100581.91
2022-09-21T18:34:29.298Z,100581.06
2022-09-21T18:40:24.797Z,100593.84
2022-09-21T18:45:40.886Z,100595.00
2022-09-21T18:50:51.700Z,100601.16
2022-09-21T18:55:54.942Z,100600.94
2022-09-21T19:01:00.854Z,100601.94
2022-09-21T19:06:26.454Z,100601.28
2022-09-21T19:11:57.469Z,100608.56
2022-09-21T19:17:33.977Z,100600.94
2022-09-21T19:23:04.608Z,100609.91
2022-09-21T19:28:52.536Z,100607.19
2022-09-21T19:33:55.571Z,100603.53
2022-09-21T19:38:58.880Z,100599.84
2022-09-21T19:44:50.712Z,100598.84
2022-09-21T19:49:57.327Z,100595.13
2022-09-21T19:55:19.354Z,100594.44
2022-09-21T20:00:24.157Z,100602.72
2022-09-21T20:05:29.672Z,100593.25
2022-09-21T20:10:44.277Z,100597.88
2022-09-21T20:16:09.100Z,100602.84
2022-09-21T20:21:19.596Z,100602.66
2022-09-21T20:26:26.275Z,100615.41
2022-09-21T20:31:30.026Z,100616.56
2022-09-21T20:36:32.958Z,100621.34
2022-09-21T20:41:37.803Z,100624.16
2022-09-21T20:46:40.757Z,100626.91
2022-09-21T20:51:43.683Z,100632.69
2022-09-21T20:56:46.558Z,100634.34
2022-09-21T21:01:49.443Z,100625.88
2022-09-21T21:06:52.359Z,100632.19
2022-09-21T21:11:56.381Z,100631.66
2022-09-21T21:16:59.150Z,100620.72
2022-09-21T21:22:02.206Z,100620.16
2022-09-21T21:27:05.118Z,100607.59
2022-09-21T21:32:08.494Z,100610.56
2022-09-21T21:37:13.627Z,100607.28
2022-09-21T21:42:16.820Z,100607.75
2022-09-21T21:47:39.683Z,100604.06
2022-09-21T21:52:45.264Z,100610.19
2022-09-21T21:57:48.114Z,100617.63
2022-09-21T22:02:50.873Z,100619.75
2022-09-21T22:07:53.761Z,100611.03
2022-09-21T22:12:57.477Z,100610.16
2022-09-21T22:18:00.623Z,100621.28
2022-09-21T22:23:03.427Z,100611.03
2022-09-21T22:28:07.243Z,100607.38
2022-09-21T22:33:10.118Z,100596.84
2022-09-21T22:38:13.706Z,100601.38
2022-09-21T22:43:16.592Z,100595.44
2022-09-21T22:48:19.368Z,100599.09
2022-09-21T22:53:23.340Z,100599.00
2022-09-21T22:58:26.250Z,100583.47
2022-09-21T23:03:29.027Z,100592.38
2022-09-21T23:08:33.255Z,100591.44
2022-09-21T23:13:37.497Z,100582.41
2022-09-21T23:18:40.781Z,100576.03
2022-09-21T23:23:44.485Z,100571.72
2022-09-21T23:28:56.845Z,100570.31
2022-09-21T23:34:07.862Z,100578.66
2022-09-21T23:39:13.900Z,100589.41
2022-09-21T23:44:16.672Z,100588.72
2022-09-21T23:49:20.040Z,100601.97
2022-09-21T23:54:22.757Z,100593.31
2022-09-21T23:59:25.642Z,100596.25
